createdAt,value
2023-04-17T00:09:15.348Z,27.63
2023-04-17T00:14:20.084Z,25.38
2023-04-17T00:19:23.360Z,23.55
2023-04-17T00:24:26.528Z,21.65
2023-04-17T00:29:32.740Z,26.63
2023-04-17T00:34:35.999Z,28.02
2023-04-17T00:39:39.199Z,25.67
2023-04-17T00:44:43.835Z,23.20
2023-04-17T00:49:47.757Z,24.17
2023-04-17T00:54:51.161Z,26.15
2023-04-17T00:59:56.823Z,25.88
2023-04-17T01:05:00.134Z,22.23
2023-04-17T01:10:04.095Z,27.45
2023-04-17T01:15:09.879Z,23.52
2023-04-17T01:20:13.654Z,23.77
2023-04-17T01:25:18.655Z,24.17
2023-04-17T01:30:25.161Z,18.80
2023-04-17T01:35:39.294Z,19.88
2023-04-17T01:40:45.589Z,23.17
2023-04-17T01:45:48.865Z,26.67
2023-04-17T01:50:52.164Z,21.95
2023-04-17T01:55:56.862Z,23.20
2023-04-17T02:01:00.585Z,21.17
2023-04-17T02:06:04.316Z,23.30
2023-04-17T02:11:10.203Z,25.10
2023-04-17T02:16:14.714Z,21.08
2023-04-17T02:21:19.107Z,22.00
2023-04-17T02:26:24.326Z,26.80
2023-04-17T02:36:32.144Z,25.63
2023-04-17T02:41:37.136Z,32.27
2023-04-17T02:46:43.956Z,22.55
2023-04-17T02:51:47.601Z,26.15
2023-04-17T02:56:53.100Z,22.42
2023-04-17T03:01:59.716Z,23.27
2023-04-17T03:07:04.047Z,19.20
2023-04-17T03:12:09.121Z,25.97
2023-04-17T03:17:14.553Z,21.58
2023-04-17T03:22:18.401Z,19.83
2023-04-17T03:27:24.889Z,22.70
2023-04-17T03:32:30.543Z,23.90
2023-04-17T03:37:33.824Z,21.88
2023-04-17T03:42:39.092Z,25.35
2023-04-17T03:47:42.718Z,28.42
2023-04-17T03:52:46.609Z,31.23
2023-04-17T03:57:52.068Z,26.47
2023-04-17T04:02:56.771Z,26.52
2023-04-17T04:08:05.105Z,25.67
2023-04-17T04:13:16.694Z,20.92
2023-04-17T04:18:26.692Z,22.00
2023-04-17T04:23:30.730Z,28.15
2023-04-17T04:28:35.928Z,29.58
2023-04-17T04:33:39.493Z,23.52
2023-04-17T04:38:43.663Z,29.75
2023-04-17T04:43:57.980Z,42.78
2023-04-17T04:49:01.394Z,30.05
2023-04-17T04:54:04.914Z,30.98
2023-04-17T04:59:13.286Z,32.88
2023-04-17T05:04:22.788Z,36.95
2023-04-17T05:09:31.589Z,32.92
2023-04-17T05:14:36.768Z,39.70
2023-04-17T05:19:40.231Z,33.08
2023-04-17T05:24:46.027Z,34.80
2023-04-17T05:29:50.921Z,42.58
2023-04-17T05:34:56.818Z,40.78
2023-04-17T05:40:07.209Z,39.75
2023-04-17T05:45:14.607Z,47.05
2023-04-17T05:50:18.195Z,38.67
2023-04-17T05:55:22.073Z,38.90
2023-04-17T06:00:31.238Z,33.55
2023-04-17T06:05:40.216Z,39.55
2023-04-17T06:10:45.775Z,42.10
2023-04-17T06:15:51.765Z,44.72
2023-04-17T06:20:56.152Z,44.55
2023-04-17T06:25:59.519Z,44.45
2023-04-17T06:31:04.291Z,40.05
2023-04-17T06:36:08.121Z,45.90
2023-04-17T06:41:18.958Z,31.35
2023-04-17T06:46:23.679Z,33.33
2023-04-17T06:51:28.724Z,32.88
2023-04-17T07:01:38.194Z,30.65
2023-04-17T07:06:41.869Z,35.78
2023-04-17T07:11:45.190Z,30.52
2023-04-17T07:16:49.971Z,26.92
2023-04-17T07:21:53.262Z,24.42
2023-04-17T07:26:57.101Z,23.80
2023-04-17T07:32:04.167Z,22.25
2023-04-17T07:37:07.920Z,23.42
2023-04-17T07:42:11.493Z,19.48
2023-04-17T07:47:16.632Z,23.23
2023-04-17T07:57:26.401Z,25.20
2023-04-17T08:02:31.064Z,19.25
2023-04-17T08:07:34.395Z,19.92
2023-04-17T08:12:37.876Z,24.52
2023-04-17T08:17:43.386Z,19.48
2023-04-17T08:22:46.924Z,20.23
2023-04-17T08:27:50.611Z,26.60
2023-04-17T08:32:57.437Z,18.15
2023-04-17T08:38:00.828Z,17.88
2023-04-17T08:43:05.309Z,17.48
2023-04-17T08:48:10.097Z,18.47
2023-04-17T08:53:13.296Z,18.20
2023-04-17T08:58:18.334Z,19.50
2023-04-17T09:03:23.172Z,17.08
2023-04-17T09:08:29.196Z,13.70
2023-04-17T09:13:40.229Z,14.77
2023-04-17T09:18:46.644Z,14.88
2023-04-17T09:23:52.438Z,15.75
2023-04-17T09:29:08.790Z,16.33
2023-04-17T09:34:14.401Z,19.13
2023-04-17T09:39:20.846Z,14.52
2023-04-17T09:44:26.952Z,15.02
2023-04-17T09:49:34.145Z,17.20
2023-04-17T09:54:39.449Z,19.73
2023-04-17T09:59:45.735Z,11.82
2023-04-17T10:04:50.360Z,18.05
2023-04-17T10:09:55.062Z,15.63
2023-04-17T10:14:58.664Z,15.65
2023-04-17T10:20:35.772Z,13.88
2023-04-17T10:25:39.141Z,12.07
2023-04-17T10:30:54.819Z,15.07
2023-04-17T10:36:00.180Z,16.27
2023-04-17T10:41:09.069Z,13.38
2023-04-17T10:46:14.206Z,13.88
2023-04-17T10:51:41.939Z,16.83
2023-04-17T10:56:49.307Z,20.25
2023-04-17T11:02:01.590Z,14.48
2023-04-17T11:07:07.242Z,14.70
2023-04-17T11:12:12.477Z,12.20
2023-04-17T11:22:22.144Z,15.98
2023-04-17T11:27:25.597Z,14.05
2023-04-17T11:32:36.412Z,11.70
2023-04-17T11:38:06.659Z,13.82
2023-04-17T11:43:11.006Z,18.08
2023-04-17T11:48:16.125Z,15.67
2023-04-17T11:53:20.945Z,16.38
2023-04-17T11:58:24.713Z,15.43
2023-04-17T12:03:33.972Z,15.15
2023-04-17T12:08:47.376Z,14.45
2023-04-17T12:13:50.950Z,11.90
2023-04-17T12:18:55.309Z,14.50
2023-04-17T12:23:59.921Z,16.77
2023-04-17T12:29:03.491Z,18.98
2023-04-17T12:34:06.804Z,17.92
2023-04-17T12:39:13.068Z,17.58
2023-04-17T12:44:16.889Z,15.05
2023-04-17T12:49:20.599Z,15.13
2023-04-17T12:54:25.533Z,20.80
2023-04-17T12:59:28.818Z,21.48
2023-04-17T13:04:32.937Z,21.52
2023-04-17T13:09:37.855Z,20.02
2023-04-17T13:14:41.847Z,22.40
2023-04-17T13:19:45.320Z,16.00
2023-04-17T13:24:50.327Z,19.55
2023-04-17T13:29:54.976Z,19.40
2023-04-17T13:34:58.856Z,19.17
2023-04-17T13:40:05.532Z,20.45
2023-04-17T13:45:10.030Z,19.27
2023-04-17T13:50:14.252Z,16.17
2023-04-17T13:55:19.258Z,20.00
2023-04-17T14:00:23.208Z,18.45
2023-04-17T14:05:26.614Z,17.60
2023-04-17T14:10:31.265Z,16.90
2023-04-17T14:15:35.280Z,17.58
2023-04-17T14:20:39.092Z,17.15
2023-04-17T14:25:44.229Z,18.52
2023-04-17T14:30:47.634Z,19.92
2023-04-17T14:35:53.510Z,20.52
2023-04-17T14:40:58.301Z,19.23
2023-04-17T14:46:01.725Z,20.85
2023-04-17T14:51:06.018Z,16.98
2023-04-17T14:56:11.001Z,17.95
2023-04-17T15:01:14.472Z,15.55
2023-04-17T15:06:18.906Z,16.25
2023-04-17T15:11:23.576Z,16.80
2023-04-17T15:16:27.024Z,19.80
2023-04-17T15:21:31.149Z,16.27
2023-04-17T15:26:36.155Z,14.98
2023-04-17T15:31:40.340Z,14.38
2023-04-17T15:36:43.769Z,12.88
2023-04-17T15:41:48.747Z,13.95
2023-04-17T15:46:52.546Z,14.60
2023-04-17T15:51:56.045Z,13.32
2023-04-17T15:57:00.985Z,15.00
2023-04-17T16:02:04.872Z,12.80
2023-04-17T16:07:08.390Z,12.18
2023-04-17T16:12:13.087Z,9.65
2023-04-17T16:17:16.444Z,12.35
2023-04-17T16:22:19.782Z,12.70
2023-04-17T16:27:25.784Z,13.93
2023-04-17T16:32:29.214Z,19.52
2023-04-17T16:37:32.482Z,15.38
2023-04-17T16:42:37.371Z,15.75
2023-04-17T16:47:41.147Z,14.68
2023-04-17T16:52:44.486Z,15.52
2023-04-17T16:57:50.340Z,14.23
2023-04-17T17:07:57.028Z,14.90
2023-04-17T17:13:01.920Z,15.40
2023-04-17T17:18:06.149Z,13.88
2023-04-17T17:23:09.541Z,18.85
2023-04-17T17:28:14.350Z,18.58
2023-04-17T17:33:18.251Z,15.95
2023-04-17T17:38:21.585Z,20.50
2023-04-17T17:43:28.081Z,19.15
2023-04-17T17:48:31.453Z,17.10
2023-04-17T17:53:34.878Z,21.17
2023-04-17T17:58:39.471Z,20.08
2023-04-17T18:03:43.443Z,21.33
2023-04-17T18:08:46.962Z,21.08
2023-04-17T18:13:51.717Z,17.63
2023-04-17T18:18:56.585Z,20.85
2023-04-17T18:24:00.451Z,22.40
2023-04-17T18:29:05.850Z,24.25
2023-04-17T18:34:09.368Z,26.35
2023-04-17T18:39:15.524Z,23.88
2023-04-17T18:44:22.347Z,27.63
2023-04-17T18:49:27.562Z,21.48
2023-04-17T18:54:31.086Z,29.20
2023-04-17T18:59:35.827Z,22.40
2023-04-17T19:04:39.102Z,27.85
2023-04-17T19:09:42.480Z,27.02
2023-04-17T19:14:47.134Z,28.88
2023-04-17T19:19:50.654Z,27.73
2023-04-17T19:24:53.927Z,22.63
2023-04-17T19:29:58.649Z,25.83
2023-04-17T19:35:02.006Z,24.63
2023-04-17T19:40:21.306Z,30.58
2023-04-17T19:45:32.344Z,25.50
2023-04-17T19:50:36.127Z,29.58
2023-04-17T19:55:41.578Z,24.75
2023-04-17T20:00:46.600Z,24.70
2023-04-17T20:05:50.541Z,25.40
2023-04-17T20:10:53.986Z,26.15
2023-04-17T20:15:58.790Z,27.48
2023-04-17T20:21:06.564Z,24.30
2023-04-17T20:26:10.717Z,23.27
2023-04-17T20:31:15.840Z,25.05
2023-04-17T20:36:21.352Z,25.80
2023-04-17T20:41:24.666Z,30.38
2023-04-17T20:46:29.522Z,32.75
2023-04-17T20:51:32.933Z,31.00
2023-04-17T20:56:36.288Z,29.23
2023-04-17T21:01:40.952Z,26.83
2023-04-17T21:06:44.326Z,23.38
2023-04-17T21:11:47.921Z,31.05
2023-04-17T21:16:54.887Z,32.03
2023-04-17T21:21:58.673Z,27.98
2023-04-17T21:27:02.529Z,26.00
2023-04-17T21:32:07.417Z,28.98
2023-04-17T21:37:10.748Z,30.08
2023-04-17T21:42:14.081Z,32.92
2023-04-17T21:47:19.678Z,27.63
2023-04-17T21:57:27.137Z,30.25
2023-04-17T22:02:31.856Z,31.65
2023-04-17T22:07:47.223Z,27.42
2023-04-17T22:12:57.747Z,30.27
2023-04-17T22:18:02.477Z,28.02
2023-04-17T22:23:06.978Z,26.80
2023-04-17T22:28:10.622Z,23.55
2023-04-17T22:33:15.677Z,27.67
2023-04-17T22:43:24.304Z,27.42
2023-04-17T22:48:28.988Z,28.67
2023-04-17T22:53:32.687Z,26.83
2023-04-17T22:58:36.563Z,32.95
2023-04-17T23:03:41.769Z,18.33
2023-04-17T23:08:45.272Z,24.30
2023-04-17T23:13:48.616Z,25.55
2023-04-17T23:18:53.468Z,28.95
2023-04-17T23:23:56.702Z,29.63
2023-04-17T23:28:59.969Z,27.13
2023-04-17T23:34:05.236Z,20.85
2023-04-17T23:44:11.901Z,29.45
2023-04-17T23:49:16.678Z,22.25
2023-04-17T23:54:20.260Z,26.17
2023-04-17T23:59:23.571Z,27.98
